createdAt,value
2024-01-11T00:00:35.787Z,18.30
2024-01-11T00:03:03.191Z,18.63
2024-01-11T00:05:29.866Z,19.07
2024-01-11T00:07:56.672Z,20.30
2024-01-11T00:10:24.160Z,21.03
2024-01-11T00:12:50.925Z,19.97
2024-01-11T00:15:17.598Z,18.93
2024-01-11T00:17:44.516Z,19.10
2024-01-11T00:20:12.703Z,18.87
2024-01-11T00:22:39.366Z,19.10
2024-01-11T00:25:06.257Z,18.87
2024-01-11T00:27:33.254Z,20.43
2024-01-11T00:30:00.311Z,19.40
2024-01-11T00:32:27.139Z,19.20
2024-01-11T00:34:54.072Z,19.10
2024-01-11T00:37:21.016Z,20.30
2024-01-11T00:39:47.767Z,19.07
2024-01-11T00:42:14.398Z,19.03
2024-01-11T00:44:42.188Z,20.47
2024-01-11T00:47:08.812Z,19.90
2024-01-11T00:49:35.479Z,20.10
2024-01-11T00:52:02.484Z,20.17
2024-01-11T00:54:29.388Z,19.17
2024-01-11T00:56:55.997Z,19.53
2024-01-11T00:59:22.737Z,20.10
2024-01-11T01:01:50.438Z,20.23
2024-01-11T01:04:17.940Z,19.33
2024-01-11T01:06:44.997Z,19.97
2024-01-11T01:09:11.764Z,19.03
2024-01-11T01:11:39.170Z,19.77
2024-01-11T01:14:06.489Z,19.80
2024-01-11T01:16:33.182Z,18.97
2024-01-11T01:18:59.985Z,19.67
2024-01-11T01:21:27.141Z,20.93
2024-01-11T01:23:54.200Z,20.20
2024-01-11T01:26:23.354Z,20.60
2024-01-11T01:28:49.990Z,19.77
2024-01-11T01:31:16.912Z,20.27
2024-01-11T01:33:44.090Z,20.73
2024-01-11T01:36:13.552Z,20.43
2024-01-11T01:38:40.395Z,20.07
2024-01-11T01:41:07.199Z,20.17
2024-01-11T01:43:34.369Z,19.77
2024-01-11T01:46:01.475Z,20.33
2024-01-11T01:48:29.135Z,20.47
2024-01-11T01:50:56.822Z,21.50
2024-01-11T01:53:26.386Z,20.73
2024-01-11T01:55:53.953Z,20.47
2024-01-11T01:58:21.502Z,20.57
2024-01-11T02:00:52.153Z,21.17
2024-01-11T02:03:19.514Z,21.70
2024-01-11T02:05:46.535Z,21.07
2024-01-11T02:08:18.216Z,21.03
2024-01-11T02:10:45.457Z,21.33
2024-01-11T02:13:14.330Z,19.93
2024-01-11T02:15:41.472Z,20.67
2024-01-11T02:18:08.693Z,21.27
2024-01-11T02:20:35.563Z,22.23
2024-01-11T02:23:09.293Z,21.80
2024-01-11T02:25:36.082Z,21.57
2024-01-11T02:28:02.771Z,21.07
2024-01-11T02:30:29.474Z,22.53
2024-01-11T02:32:56.760Z,21.93
2024-01-11T02:35:24.575Z,21.90
2024-01-11T02:37:51.833Z,21.57
2024-01-11T02:40:20.322Z,21.57
2024-01-11T02:42:47.702Z,23.37
2024-01-11T02:45:14.707Z,23.37
2024-01-11T02:47:41.581Z,19.93
2024-01-11T02:50:09.240Z,22.63
2024-01-11T02:52:36.428Z,23.50
2024-01-11T02:55:03.382Z,22.20
2024-01-11T02:57:30.045Z,22.60
2024-01-11T02:59:56.887Z,22.33
2024-01-11T03:02:23.906Z,20.97
2024-01-11T03:04:50.813Z,21.47
2024-01-11T03:07:17.493Z,21.97
2024-01-11T03:09:44.083Z,22.80
2024-01-11T03:12:11.310Z,22.50
2024-01-11T03:14:37.996Z,23.70
2024-01-11T03:17:05.997Z,23.57
2024-01-11T03:19:33.020Z,21.57
2024-01-11T03:21:59.742Z,21.83
2024-01-11T03:24:26.329Z,20.77
2024-01-11T03:26:53.239Z,21.40
2024-01-11T03:29:20.058Z,19.60
2024-01-11T03:31:46.810Z,20.97
2024-01-11T03:34:13.892Z,27.03
2024-01-11T03:36:41.350Z,26.10
2024-01-11T03:39:08.041Z,22.13
2024-01-11T03:41:35.221Z,23.27
2024-01-11T03:44:02.532Z,22.60
2024-01-11T03:46:29.198Z,21.47
2024-01-11T03:48:57.240Z,20.67
2024-01-11T03:51:24.220Z,21.73
2024-01-11T03:53:50.991Z,23.50
2024-01-11T03:56:18.126Z,20.97
2024-01-11T03:58:46.474Z,22.73
2024-01-11T04:01:13.386Z,20.47
2024-01-11T04:03:40.530Z,22.27
2024-01-11T04:06:07.859Z,21.07
2024-01-11T04:08:34.861Z,21.37
2024-01-11T04:11:08.285Z,21.73
2024-01-11T04:13:34.929Z,20.87
2024-01-11T04:18:36.529Z,20.83
2024-01-11T04:21:03.286Z,20.97
2024-01-11T04:23:29.905Z,21.40
2024-01-11T04:25:56.580Z,21.03
2024-01-11T04:28:24.346Z,21.93
2024-01-11T04:30:51.044Z,20.40
2024-01-11T04:33:17.825Z,20.30
2024-01-11T04:35:44.553Z,21.37
2024-01-11T04:38:12.149Z,21.10
2024-01-11T04:40:39.247Z,20.80
2024-01-11T04:43:05.835Z,22.57
2024-01-11T04:45:32.417Z,21.93
2024-01-11T04:47:59.596Z,21.73
2024-01-11T04:50:26.421Z,21.60
2024-01-11T04:52:53.540Z,21.27
2024-01-11T04:55:20.199Z,21.73
2024-01-11T04:57:46.989Z,26.37
2024-01-11T05:00:13.964Z,31.73
2024-01-11T05:02:41.008Z,24.70
2024-01-11T05:05:07.742Z,23.87
2024-01-11T05:07:35.889Z,22.87
2024-01-11T05:10:02.526Z,26.60
2024-01-11T05:12:29.129Z,21.83
2024-01-11T05:14:55.934Z,21.23
2024-01-11T05:17:22.605Z,22.33
2024-01-11T05:19:49.249Z,21.57
2024-01-11T05:22:16.664Z,21.33
2024-01-11T05:24:43.265Z,22.17
2024-01-11T05:27:09.956Z,21.70
2024-01-11T05:29:37.359Z,21.73
2024-01-11T05:32:04.498Z,22.10
2024-01-11T05:34:31.545Z,24.37
2024-01-11T05:37:00.392Z,23.57
2024-01-11T05:39:27.689Z,20.80
2024-01-11T05:41:54.286Z,22.30
2024-01-11T05:44:21.859Z,23.20
2024-01-11T05:46:48.515Z,21.67
2024-01-11T05:49:15.209Z,21.90
2024-01-11T05:51:42.004Z,22.10
2024-01-11T05:54:08.619Z,20.27
2024-01-11T05:56:35.332Z,21.33
2024-01-11T05:59:02.464Z,23.13
2024-01-11T06:01:29.138Z,22.53
2024-01-11T06:03:56.451Z,21.97
2024-01-11T06:06:23.183Z,20.93
2024-01-11T06:08:49.995Z,20.20
2024-01-11T06:11:20.455Z,23.27
2024-01-11T06:13:47.112Z,21.37
2024-01-11T06:16:13.978Z,22.03
2024-01-11T06:18:40.849Z,21.23
2024-01-11T06:21:07.672Z,22.03
2024-01-11T06:23:34.456Z,20.67
2024-01-11T06:26:01.256Z,20.63
2024-01-11T06:28:27.914Z,20.40
2024-01-11T06:30:55.295Z,21.87
2024-01-11T06:33:22.560Z,21.53
2024-01-11T06:35:49.239Z,21.93
2024-01-11T06:38:15.949Z,21.33
2024-01-11T06:40:43.154Z,22.33
2024-01-11T06:43:09.838Z,21.00
2024-01-11T06:45:36.742Z,20.93
2024-01-11T06:48:03.950Z,21.60
2024-01-11T06:50:30.647Z,20.57
2024-01-11T06:52:57.316Z,22.13
2024-01-11T06:55:24.620Z,22.63
2024-01-11T06:57:51.236Z,22.30
2024-01-11T07:00:18.108Z,22.37
2024-01-11T07:02:44.825Z,21.17
2024-01-11T07:05:11.692Z,22.50
2024-01-11T07:07:38.608Z,21.23
2024-01-11T07:10:06.853Z,22.37
2024-01-11T07:12:34.192Z,21.97
2024-01-11T07:15:00.996Z,21.20
2024-01-11T07:17:27.739Z,22.60
2024-01-11T07:19:57.201Z,21.20
2024-01-11T07:22:23.827Z,21.27
2024-01-11T07:24:50.426Z,23.33
2024-01-11T07:27:17.418Z,21.63
2024-01-11T07:29:44.084Z,22.87
2024-01-11T07:32:13.117Z,22.63
2024-01-11T07:34:39.981Z,21.97
2024-01-11T07:37:06.695Z,26.97
2024-01-11T07:39:33.362Z,21.83
2024-01-11T07:42:00.008Z,21.77
2024-01-11T07:44:26.648Z,22.20
2024-01-11T07:46:55.157Z,22.73
2024-01-11T07:49:23.409Z,21.97
2024-01-11T07:51:50.432Z,23.33
2024-01-11T07:54:17.462Z,22.47
2024-01-11T07:56:44.509Z,23.47
2024-01-11T07:59:16.453Z,24.00
2024-01-11T08:01:43.811Z,22.23
2024-01-11T08:04:10.638Z,23.43
2024-01-11T08:06:37.425Z,23.27
2024-01-11T08:09:06.461Z,23.40
2024-01-11T08:11:36.576Z,23.70
2024-01-11T08:14:07.220Z,23.20
2024-01-11T08:16:34.305Z,23.77
2024-01-11T08:19:02.523Z,23.00
2024-01-11T08:21:30.014Z,24.57
2024-01-11T08:24:00.446Z,24.13
2024-01-11T08:26:31.523Z,23.83
2024-01-11T08:28:58.470Z,23.90
2024-01-11T08:31:25.783Z,23.97
2024-01-11T08:33:52.870Z,22.83
2024-01-11T08:36:19.800Z,22.57
2024-01-11T08:38:46.449Z,23.03
2024-01-11T08:41:13.366Z,23.37
2024-01-11T08:43:40.835Z,23.63
2024-01-11T08:46:07.481Z,22.27
2024-01-11T08:48:34.871Z,23.90
2024-01-11T08:51:02.357Z,22.10
2024-01-11T08:53:29.180Z,22.93
2024-01-11T08:55:55.805Z,23.20
2024-01-11T08:58:22.789Z,23.30
2024-01-11T09:00:49.530Z,25.90
2024-01-11T09:03:18.210Z,23.63
2024-01-11T09:05:45.310Z,23.67
2024-01-11T09:08:12.045Z,24.00
2024-01-11T09:10:38.917Z,23.10
2024-01-11T09:13:05.716Z,23.80
2024-01-11T09:15:33.068Z,22.50
2024-01-11T09:18:01.899Z,22.77
2024-01-11T09:20:28.824Z,23.03
2024-01-11T09:22:55.581Z,22.50
2024-01-11T09:25:22.216Z,24.07
2024-01-11T09:27:49.091Z,23.17
2024-01-11T09:30:15.933Z,23.60
2024-01-11T09:32:43.046Z,22.83
2024-01-11T09:35:11.971Z,22.87
2024-01-11T09:37:41.122Z,22.87
2024-01-11T09:40:11.978Z,23.33
2024-01-11T09:42:39.105Z,23.70
2024-01-11T09:45:18.918Z,24.87
2024-01-11T09:47:50.101Z,24.33
2024-01-11T09:50:19.570Z,26.60
2024-01-11T09:52:49.014Z,28.70
2024-01-11T09:55:16.006Z,24.23
2024-01-11T09:57:46.028Z,23.27
2024-01-11T10:00:17.570Z,23.60
2024-01-11T10:02:44.251Z,23.07
2024-01-11T10:05:11.698Z,23.47
2024-01-11T10:07:39.378Z,24.53
2024-01-11T10:10:06.992Z,23.07
2024-01-11T10:12:36.205Z,23.73
2024-01-11T10:15:09.642Z,24.90
2024-01-11T10:17:45.951Z,23.63
2024-01-11T10:20:15.642Z,24.60
2024-01-11T10:22:45.984Z,23.43
2024-01-11T10:25:16.986Z,21.90
2024-01-11T10:27:45.542Z,23.83
2024-01-11T10:30:18.528Z,24.43
2024-01-11T10:32:46.168Z,23.27
2024-01-11T10:35:13.112Z,23.70
2024-01-11T10:37:40.329Z,24.47
2024-01-11T10:40:12.229Z,24.43
2024-01-11T10:42:46.584Z,23.60
2024-01-11T10:45:18.419Z,24.43
2024-01-11T10:48:00.030Z,23.53
2024-01-11T10:50:32.494Z,22.50
2024-01-11T10:53:03.804Z,22.83
2024-01-11T10:55:33.935Z,23.77
2024-01-11T10:58:02.638Z,22.50
2024-01-11T11:00:31.209Z,24.37
2024-01-11T11:03:02.225Z,23.73
2024-01-11T11:05:31.940Z,23.20
2024-01-11T11:08:03.238Z,24.57
2024-01-11T11:10:31.840Z,23.20
2024-01-11T11:13:01.216Z,21.80
2024-01-11T11:15:32.407Z,23.57
2024-01-11T11:17:59.302Z,22.93
2024-01-11T11:20:26.694Z,22.20
2024-01-11T11:23:11.222Z,21.83
2024-01-11T11:25:38.710Z,21.70
2024-01-11T11:28:06.296Z,21.57
2024-01-11T11:30:34.261Z,21.00
2024-01-11T11:33:32.416Z,21.53
2024-01-11T11:36:00.037Z,20.20
2024-01-11T11:38:32.323Z,21.10
2024-01-11T11:41:00.993Z,20.70
2024-01-11T11:43:29.329Z,21.17
2024-01-11T11:45:58.857Z,20.33
2024-01-11T11:48:30.962Z,19.53
2024-01-11T11:51:06.940Z,20.73
2024-01-11T11:53:37.442Z,21.00
2024-01-11T11:56:05.137Z,22.53
2024-01-11T11:58:33.306Z,20.80
2024-01-11T12:01:01.745Z,19.83
2024-01-11T12:03:32.871Z,21.83
2024-01-11T12:06:01.064Z,21.60
2024-01-11T12:08:28.671Z,21.20
2024-01-11T12:10:55.758Z,20.97
2024-01-11T12:13:23.334Z,20.10
2024-01-11T12:15:49.981Z,20.03
2024-01-11T12:18:16.943Z,19.60
2024-01-11T12:20:44.135Z,21.63
2024-01-11T12:23:11.458Z,20.57
2024-01-11T12:25:38.134Z,18.37
2024-01-11T12:28:07.551Z,20.87
2024-01-11T12:30:34.777Z,19.20
2024-01-11T12:33:05.384Z,17.97
2024-01-11T12:35:32.607Z,18.67
2024-01-11T12:38:07.784Z,18.33
2024-01-11T12:40:38.987Z,18.27
2024-01-11T12:43:06.827Z,17.40
2024-01-11T12:45:33.849Z,18.20
2024-01-11T12:48:01.368Z,17.30
2024-01-11T12:50:29.598Z,17.93
2024-01-11T12:53:07.800Z,17.50
2024-01-11T12:55:45.008Z,18.43
2024-01-11T12:58:25.743Z,18.57
2024-01-11T13:00:53.434Z,17.97
2024-01-11T13:03:23.239Z,17.07
2024-01-11T13:05:50.588Z,17.70
2024-01-11T13:08:20.499Z,16.37
2024-01-11T13:10:49.596Z,16.87
2024-01-11T13:13:16.986Z,15.50
2024-01-11T13:15:43.884Z,17.37
2024-01-11T13:18:10.936Z,16.03
2024-01-11T13:20:37.819Z,16.10
2024-01-11T13:23:22.293Z,16.33
2024-01-11T13:25:53.732Z,16.27
2024-01-11T13:28:20.676Z,15.40
2024-01-11T13:30:48.250Z,14.07
2024-01-11T13:33:17.931Z,15.03
2024-01-11T13:35:45.105Z,15.33
2024-01-11T13:38:12.250Z,15.50
2024-01-11T13:40:41.683Z,14.07
2024-01-11T13:43:08.761Z,14.60
2024-01-11T13:45:37.741Z,12.83
2024-01-11T13:48:06.091Z,12.90
2024-01-11T13:50:36.418Z,13.80
2024-01-11T13:53:03.623Z,13.33
2024-01-11T13:55:39.352Z,13.60
2024-01-11T13:58:07.111Z,11.97
2024-01-11T14:00:33.876Z,11.33
2024-01-11T14:03:00.881Z,12.40
2024-01-11T14:05:27.748Z,12.43
2024-01-11T14:08:00.436Z,12.43
2024-01-11T14:10:28.390Z,12.83
2024-01-11T14:12:55.552Z,13.93
2024-01-11T14:15:22.337Z,14.00
2024-01-11T14:17:50.056Z,13.13
2024-01-11T14:20:17.623Z,13.97
2024-01-11T14:22:50.717Z,13.00
2024-01-11T14:25:19.107Z,13.60
2024-01-11T14:27:45.921Z,13.17
2024-01-11T14:30:14.124Z,14.30
2024-01-11T14:32:42.530Z,13.77
2024-01-11T14:35:10.459Z,13.73
2024-01-11T14:37:38.984Z,13.80
2024-01-11T14:40:12.572Z,13.13
2024-01-11T14:42:40.375Z,13.27
2024-01-11T14:45:10.681Z,13.73
2024-01-11T14:47:37.961Z,14.97
2024-01-11T14:50:05.826Z,13.13
2024-01-11T14:52:32.803Z,14.00
2024-01-11T14:55:00.328Z,13.30
2024-01-11T14:57:27.025Z,13.43
2024-01-11T14:59:54.468Z,13.53
2024-01-11T15:02:21.550Z,12.83
2024-01-11T15:04:48.592Z,12.90
2024-01-11T15:07:15.862Z,12.93
2024-01-11T15:09:42.634Z,12.73
2024-01-11T15:12:09.611Z,12.47
2024-01-11T15:14:36.388Z,13.00
2024-01-11T15:17:03.834Z,13.17
2024-01-11T15:19:31.032Z,13.73
2024-01-11T15:21:57.768Z,12.67
2024-01-11T15:24:24.459Z,12.23
2024-01-11T15:26:51.282Z,11.53
2024-01-11T15:29:18.482Z,11.60
2024-01-11T15:31:47.775Z,11.27
2024-01-11T15:34:18.408Z,11.27
2024-01-11T15:36:45.498Z,12.57
2024-01-11T15:39:21.616Z,12.37
2024-01-11T15:41:58.537Z,12.40
2024-01-11T15:44:29.171Z,12.00
2024-01-11T15:46:57.683Z,12.33
2024-01-11T15:49:24.853Z,11.07
2024-01-11T15:51:51.920Z,9.87
2024-01-11T15:54:18.585Z,9.77
2024-01-11T15:56:45.380Z,8.87
2024-01-11T15:59:12.291Z,8.10
2024-01-11T16:01:51.010Z,7.73
2024-01-11T16:04:29.679Z,7.50
2024-01-11T16:06:56.626Z,6.80
2024-01-11T16:09:24.818Z,6.10
2024-01-11T16:11:51.766Z,5.60
2024-01-11T16:14:18.856Z,6.37
2024-01-11T16:16:45.502Z,7.87
2024-01-11T16:19:12.372Z,6.53
2024-01-11T16:21:39.501Z,6.50
2024-01-11T16:24:06.195Z,6.13
2024-01-11T16:26:32.873Z,7.00
2024-01-11T16:28:59.521Z,7.40
2024-01-11T16:31:26.318Z,8.20
2024-01-11T16:33:54.318Z,8.00
2024-01-11T16:36:21.281Z,8.37
2024-01-11T16:38:48.398Z,23.73
2024-01-11T16:41:15.282Z,14.20
2024-01-11T16:43:41.986Z,9.97
2024-01-11T16:46:08.919Z,9.33
2024-01-11T16:48:36.067Z,8.80
2024-01-11T16:51:03.328Z,9.70
2024-01-11T16:53:30.047Z,10.10
2024-01-11T16:55:56.866Z,9.47
2024-01-11T16:58:23.512Z,10.27
2024-01-11T17:00:50.181Z,9.60
2024-01-11T17:03:17.510Z,9.60
2024-01-11T17:05:44.477Z,9.90
2024-01-11T17:08:11.150Z,10.67
2024-01-11T17:10:39.219Z,11.37
2024-01-11T17:13:06.078Z,11.43
2024-01-11T17:15:33.411Z,11.13
2024-01-11T17:18:00.284Z,10.67
2024-01-11T17:20:27.733Z,11.63
2024-01-11T17:22:55.219Z,11.73
2024-01-11T17:25:22.296Z,12.10
2024-01-11T17:27:48.991Z,13.43
2024-01-11T17:30:16.079Z,11.27
2024-01-11T17:32:42.831Z,13.33
2024-01-11T17:35:10.189Z,30.13
2024-01-11T17:37:37.254Z,24.30
2024-01-11T17:40:05.867Z,18.00
2024-01-11T17:42:32.672Z,12.37
2024-01-11T17:44:59.691Z,13.27
2024-01-11T17:47:26.504Z,11.33
2024-01-11T17:49:53.344Z,11.90
2024-01-11T17:52:21.801Z,11.70
2024-01-11T17:54:48.705Z,12.10
2024-01-11T17:57:15.841Z,12.37
2024-01-11T17:59:45.887Z,10.87
2024-01-11T18:02:13.178Z,11.00
2024-01-11T18:04:40.435Z,12.03
2024-01-11T18:07:07.213Z,11.70
2024-01-11T18:09:36.875Z,11.67
2024-01-11T18:12:03.718Z,11.50
2024-01-11T18:14:30.384Z,10.60
2024-01-11T18:16:57.030Z,11.97
2024-01-11T18:19:23.719Z,12.90
2024-01-11T18:21:50.414Z,12.40
2024-01-11T18:24:17.195Z,13.13
2024-01-11T18:26:43.841Z,12.10
2024-01-11T18:29:10.775Z,11.90
2024-01-11T18:31:40.076Z,11.93
2024-01-11T18:34:07.146Z,11.73
2024-01-11T18:36:44.481Z,11.83
2024-01-11T18:39:11.453Z,11.70
2024-01-11T18:41:38.349Z,12.17
2024-01-11T18:44:05.234Z,11.10
2024-01-11T18:46:31.909Z,11.27
2024-01-11T18:48:58.697Z,11.47
2024-01-11T18:51:25.571Z,11.20
2024-01-11T18:53:52.546Z,11.93
2024-01-11T18:56:19.438Z,11.63
2024-01-11T18:58:46.160Z,11.67
2024-01-11T19:01:13.222Z,11.63
2024-01-11T19:03:41.065Z,12.50
2024-01-11T19:06:09.087Z,11.60
2024-01-11T19:08:36.175Z,12.40
2024-01-11T19:11:03.100Z,13.70
2024-01-11T19:13:29.743Z,13.67
2024-01-11T19:15:56.701Z,14.37
2024-01-11T19:18:23.550Z,13.47
2024-01-11T19:20:54.453Z,15.23
2024-01-11T19:23:26.886Z,13.97
2024-01-11T19:25:58.381Z,14.47
2024-01-11T19:28:25.880Z,14.90
2024-01-11T19:30:52.676Z,14.37
2024-01-11T19:33:19.565Z,14.50
2024-01-11T19:35:46.487Z,16.27
2024-01-11T19:38:13.819Z,18.13
2024-01-11T19:40:43.834Z,17.67
2024-01-11T19:43:10.690Z,18.40
2024-01-11T19:45:37.497Z,18.10
2024-01-11T19:48:04.866Z,16.17
2024-01-11T19:50:34.862Z,17.63
2024-01-11T19:53:01.841Z,16.67
2024-01-11T19:55:28.837Z,17.17
2024-01-11T19:57:55.505Z,16.53
2024-01-11T20:00:23.034Z,16.60
2024-01-11T20:02:50.990Z,17.03
2024-01-11T20:05:17.693Z,17.03
2024-01-11T20:07:44.842Z,15.93
2024-01-11T20:10:12.311Z,17.23
2024-01-11T20:12:39.132Z,17.73
2024-01-11T20:15:08.326Z,18.13
2024-01-11T20:17:35.302Z,18.77
2024-01-11T20:20:02.266Z,18.57
2024-01-11T20:22:31.743Z,17.10
2024-01-11T20:24:58.379Z,18.13
2024-01-11T20:27:24.986Z,19.87
2024-01-11T20:29:51.665Z,18.73
2024-01-11T20:32:18.613Z,19.50
2024-01-11T20:34:45.345Z,18.40
2024-01-11T20:37:12.207Z,18.10
2024-01-11T20:39:39.407Z,20.03
2024-01-11T20:42:08.253Z,18.73
2024-01-11T20:44:37.635Z,19.10
2024-01-11T20:47:05.297Z,18.30
2024-01-11T20:49:31.988Z,18.77
2024-01-11T20:52:00.529Z,18.13
2024-01-11T20:54:27.634Z,17.93
2024-01-11T20:56:56.619Z,17.50
2024-01-11T20:59:23.572Z,18.10
2024-01-11T21:01:50.771Z,16.87
2024-01-11T21:04:17.575Z,17.07
2024-01-11T21:06:45.680Z,17.77
2024-01-11T21:09:12.944Z,18.20
2024-01-11T21:11:39.588Z,18.70
2024-01-11T21:14:06.399Z,19.97
2024-01-11T21:16:33.147Z,19.57
2024-01-11T21:18:59.888Z,19.27
2024-01-11T21:21:27.755Z,19.90
2024-01-11T21:23:58.777Z,19.37
2024-01-11T21:26:25.542Z,19.67
2024-01-11T21:28:54.903Z,19.90
2024-01-11T21:31:26.028Z,20.20
2024-01-11T21:33:53.517Z,19.57
2024-01-11T21:36:24.545Z,20.60
2024-01-11T21:38:56.558Z,19.50
2024-01-11T21:41:23.815Z,21.07
2024-01-11T21:43:52.122Z,22.67
2024-01-11T21:46:19.357Z,20.90
2024-01-11T21:48:46.530Z,21.80
2024-01-11T21:51:13.564Z,21.73
2024-01-11T21:53:41.110Z,21.70
2024-01-11T21:56:07.750Z,23.27
2024-01-11T21:58:36.008Z,20.90
2024-01-11T22:01:03.168Z,21.63
2024-01-11T22:03:30.121Z,22.80
2024-01-11T22:05:57.020Z,20.90
2024-01-11T22:08:24.047Z,22.20
2024-01-11T22:10:51.789Z,24.60
2024-01-11T22:13:18.542Z,22.63
2024-01-11T22:15:45.577Z,23.17
2024-01-11T22:18:12.713Z,23.13
2024-01-11T22:20:39.938Z,23.00
2024-01-11T22:23:07.234Z,22.20
2024-01-11T22:25:34.660Z,23.27
2024-01-11T22:28:02.850Z,23.97
2024-01-11T22:30:29.850Z,23.50
2024-01-11T22:32:59.267Z,22.50
2024-01-11T22:35:26.145Z,22.40
2024-01-11T22:37:53.051Z,23.10
2024-01-11T22:40:20.016Z,22.57
2024-01-11T22:42:46.803Z,24.77
2024-01-11T22:45:13.525Z,24.13
2024-01-11T22:47:41.066Z,23.50
2024-01-11T22:50:08.405Z,23.47
2024-01-11T22:52:35.578Z,22.83
2024-01-11T22:55:02.398Z,23.60
2024-01-11T22:57:29.112Z,23.53
2024-01-11T22:59:56.047Z,23.47
2024-01-11T23:02:23.272Z,22.27
2024-01-11T23:04:51.199Z,23.20
2024-01-11T23:07:18.684Z,23.20
2024-01-11T23:09:45.679Z,23.63
2024-01-11T23:12:12.630Z,23.07
2024-01-11T23:14:39.543Z,23.10
2024-01-11T23:17:07.708Z,22.53
2024-01-11T23:19:34.770Z,22.50
2024-01-11T23:22:01.930Z,22.97
2024-01-11T23:24:28.670Z,23.67
2024-01-11T23:26:56.191Z,24.77
2024-01-11T23:29:23.086Z,23.90
2024-01-11T23:31:51.352Z,24.43
2024-01-11T23:34:18.196Z,23.80
2024-01-11T23:36:44.962Z,23.53
2024-01-11T23:39:11.934Z,26.60
2024-01-11T23:41:38.776Z,27.03
2024-01-11T23:44:05.838Z,26.60
2024-01-11T23:46:32.951Z,25.97
2024-01-11T23:48:59.833Z,24.90
2024-01-11T23:51:27.037Z,25.47
2024-01-11T23:53:53.910Z,24.70
2024-01-11T23:56:20.714Z,24.80
2024-01-11T23:58:47.428Z,24.10
